Samui, Thailand

9:51 AM ICT on April 26, 2015 (GMT +0700)
Samui | | Change Station
CLOSE
Current Station
Airport
Location: Samui,
Elevation: 66 ft
Nearby Weather Stations

Elev 66 ft 9.55 °N, 100.06 °E | Updated 51 minutes ago

Rain
Rain
88 °F
Feels Like 102 °F
N
12
Wind Variable Wind from SSE

Today
High -- | Low -- °F
--% Chance of Precip.
Yesterday
High -- | Low -- °F
Precip. -- in
6:05 AM 6:30 PM
Waxing Crescent, 51% visible
Pressure 29.92 in
Visibility 3.7 miles
Clouds Scattered Clouds 2000 ft
Mostly Cloudy 30000 ft
Heat Index 102 °F
Dew Point 79 °F
Humidity 75%
Rainfall 0.00 in
Snow Depth Not available.
UV 4 out of 12
Pollen Not available.
Air Quality Not available.
Flu Activity Not available.
METAR VTSM 260200Z 16010KT 6000 RA SCT020CB BKN300 31/26 Q1013 A2992

More Conditions Fewer Conditions

Pressure 29.92 in
Visibility 3.7 miles
Clouds Scattered Clouds 2000 ft
Mostly Cloudy 30000 ft
Heat Index 102 °F
Dew Point 79 °F
Humidity 75%
Rainfall 0.00 in
Snow Depth Not available.
UV 4 out of 12
Pollen Not available.
Air Quality Not available.
Flu Activity Not available.
METAR VTSM 260200Z 16010KT 6000 RA SCT020CB BKN300 31/26 Q1013 A2992

More Conditions Fewer Conditions

10-Day Weather Forecast

Almanac

Astronomy

Apr. 26, 2015 Rise Set
Actual Time
Civil Twilight
Nautical Twilight
Astronomical Twilight
Moon
Length of Visible Light
Length of Day
Tomorrow will be .
, % of the Moon is Illuminated

Today's Extremes

Country Highs Country Lows

Community

WunderPhotos

Upload Photos

1,816,909 photos uploaded!

WunderBlogs® & News

Nearby

Air Quality

  Air Quality AQ Index Pollutant
Not available.

Snow Depth

Station Depth Elevation

Earthquake Activity

City Distance Mag. Time & Date
Minimum magnitude displayed is 2.5.

Coastal Water Temperatures

Place Temperature

Stations

Nearby Weather Stations

Station Location Temp. Windchill Dew Point Humidity Wind Precip. Elev Updated Type